Time;durP1;ratioP1;P1;durP2;ratioP2;P2;SDS_P1;SDS_P2;PMS_P1;PMS_P2;Temp;Humidity;BMP_temperature;BMP_pressure;BME280_temperature;BME280_humidity;BME280_pressure;Samples;Min_cycle;Max_cycle;Signal;HPM_P1;HPM_P2
2023/01/08 00:01:05;;;;;;;22.13;16.47;;;;;;;-0.26;100.00;95829.81;5071275;28;20524;-72
2023/01/08 00:03:32;;;;;;;19.73;15.57;;;;;;;0.07;100.00;95875.06;5071171;28;20432;-72
2023/01/08 00:06:01;;;;;;;21.37;16.13;;;;;;;0.05;100.00;95863.38;5070493;28;20491;-72
2023/01/08 00:08:30;;;;;;;17.00;14.77;;;;;;;0.09;100.00;95867.75;5071299;28;20523;-72
2023/01/08 00:10:57;;;;;;;17.43;15.07;;;;;;;0.12;100.00;95867.22;5071098;28;20462;-72
2023/01/08 00:13:24;;;;;;;20.80;17.63;;;;;;;0.20;100.00;95868.47;5071055;28;20563;-72
2023/01/08 00:15:51;;;;;;;17.93;15.57;;;;;;;-0.15;100.00;95828.69;5054460;28;20468;-72
2023/01/08 00:18:18;;;;;;;18.33;15.27;;;;;;;0.01;100.00;95852.00;5054508;28;20948;-72
2023/01/08 00:20:45;;;;;;;17.07;15.27;;;;;;;-0.01;100.00;95866.00;5054366;28;20944;-72
2023/01/08 00:23:16;;;;;;;17.77;14.87;;;;;;;-0.02;100.00;95863.66;5070885;28;20471;-72
2023/01/08 00:25:43;;;;;;;17.47;14.60;;;;;;;0.04;100.00;95857.41;5057821;28;20456;-73
2023/01/08 00:28:10;;;;;;;20.03;14.47;;;;;;;0.07;100.00;95856.88;5071295;28;20476;-72
2023/01/08 00:30:37;;;;;;;14.40;12.57;;;;;;;0.11;100.00;95857.09;5083255;28;20416;-73
2023/01/08 00:33:03;;;;;;;15.87;13.40;;;;;;;0.08;100.00;95845.44;5071939;28;20824;-73
2023/01/08 00:35:30;;;;;;;16.90;13.00;;;;;;;-0.10;100.00;95818.28;5073359;28;20444;-73
2023/01/08 00:37:57;;;;;;;16.00;13.73;;;;;;;0.00;100.00;95840.81;5070487;28;20519;-73
2023/01/08 00:40:24;;;;;;;17.57;15.23;;;;;;;-0.17;100.00;95812.59;5071898;28;20538;-72
2023/01/08 00:42:50;;;;;;;17.47;15.00;;;;;;;0.08;100.00;95832.44;5070408;28;20431;-72
2023/01/08 00:45:17;;;;;;;21.97;14.80;;;;;;;0.08;100.00;95826.47;5070426;28;21244;-72
2023/01/08 00:47:44;;;;;;;19.20;14.50;;;;;;;-0.18;100.00;95803.25;5070239;28;20805;-73
2023/01/08 00:50:10;;;;;;;16.57;14.77;;;;;;;-0.24;100.00;95825.13;5070389;28;20436;-73
2023/01/08 00:52:37;;;;;;;21.63;14.83;;;;;;;-0.37;100.00;95810.91;5070424;28;20980;-72
2023/01/08 00:55:07;;;;;;;15.77;13.47;;;;;;;-0.48;100.00;95799.03;5053996;28;20543;-72
2023/01/08 00:57:36;;;;;;;18.63;14.70;;;;;;;-0.32;100.00;95805.69;5070071;28;20439;-73
2023/01/08 01:00:08;;;;;;;16.27;14.63;;;;;;;-0.21;100.00;95798.59;5071459;28;20435;-73
2023/01/08 01:02:35;;;;;;;17.53;14.10;;;;;;;-0.39;100.00;95763.69;5070171;28;20442;-73
2023/01/08 01:05:03;;;;;;;16.87;14.40;;;;;;;-0.14;100.00;95800.88;5069790;28;20483;-73
2023/01/08 01:07:30;;;;;;;15.27;12.40;;;;;;;-0.20;100.00;95812.38;5070195;28;20441;-73
2023/01/08 01:09:57;;;;;;;15.10;13.00;;;;;;;-0.10;100.00;95820.88;5071489;28;20435;-73
2023/01/08 01:12:24;;;;;;;17.50;15.17;;;;;;;-0.34;100.00;95786.22;5069748;28;20449;-73
2023/01/08 01:14:50;;;;;;;20.50;13.63;;;;;;;-0.53;100.00;95747.16;5069661;28;20835;-73
2023/01/08 01:17:17;;;;;;;17.23;15.43;;;;;;;-0.33;100.00;95775.56;5070075;28;20436;-73
2023/01/08 01:19:46;;;;;;;17.20;13.47;;;;;;;-0.19;100.00;95791.31;5069549;28;20445;-73
2023/01/08 01:22:13;;;;;;;17.43;14.30;;;;;;;-0.20;100.00;95784.56;5069472;28;20770;-73
2023/01/08 01:24:40;;;;;;;17.17;14.80;;;;;;;-0.02;100.00;95809.88;5070680;28;20542;-73
2023/01/08 01:27:07;;;;;;;16.07;13.10;;;;;;;-0.01;100.00;95819.22;5070842;28;20519;-72
2023/01/08 01:29:33;;;;;;;15.43;13.13;;;;;;;-0.11;100.00;95811.53;5065468;28;20434;-73
2023/01/08 01:32:00;;;;;;;15.23;13.43;;;;;;;-0.01;100.00;95828.84;5053690;28;20554;-72
2023/01/08 01:34:27;;;;;;;14.43;12.90;;;;;;;-0.37;100.00;95804.94;5071599;28;20464;-72
2023/01/08 01:36:53;;;;;;;13.67;12.20;;;;;;;-0.43;100.00;95821.59;5069990;28;20946;-72
2023/01/08 01:39:20;;;;;;;15.97;13.50;;;;;;;-0.35;100.00;95834.00;5070922;28;20424;-72
2023/01/08 01:41:47;;;;;;;13.60;12.07;;;;;;;-0.26;100.00;95840.19;5069370;28;20465;-72
2023/01/08 01:44:33;;;;;;;15.90;13.03;;;;;;;-0.15;100.00;95831.28;5069614;28;20944;-72
2023/01/08 01:47:04;;;;;;;15.80;12.77;;;;;;;-0.18;100.00;95829.22;5069388;28;20436;-72
2023/01/08 01:49:32;;;;;;;16.03;13.03;;;;;;;-0.14;100.00;95819.84;5069277;28;20460;-72
2023/01/08 01:52:01;;;;;;;14.37;10.50;;;;;;;-0.36;100.00;95830.66;5069248;28;20555;-72
2023/01/08 01:54:30;;;;;;;14.70;11.83;;;;;;;-0.28;100.00;95820.72;5069477;28;20483;-72
2023/01/08 01:56:59;;;;;;;13.97;12.47;;;;;;;-0.46;100.00;95801.34;5070746;28;20888;-72
2023/01/08 01:59:26;;;;;;;17.10;12.43;;;;;;;-0.53;100.00;95800.91;5069184;28;20440;-72
2023/01/08 02:01:55;;;;;;;14.33;12.63;;;;;;;-0.38;100.00;95813.78;5052902;28;20480;-72
2023/01/08 02:04:21;;;;;;;13.87;11.67;;;;;;;-0.47;100.00;95794.63;5069143;28;20462;-72
2023/01/08 02:06:54;;;;;;;13.57;12.20;;;;;;;-0.35;100.00;95818.44;5052636;28;20444;-72
2023/01/08 02:09:34;;;;;;;15.30;11.90;;;;;;;-0.34;100.00;95809.59;5069207;28;20862;-72
2023/01/08 02:12:17;;;;;;;13.60;12.20;;;;;;;-0.39;100.00;95810.41;5070520;28;20509;-72
2023/01/08 02:14:53;;;;;;;13.20;11.90;;;;;;;-0.43;100.00;95795.63;5080145;28;20428;-72
2023/01/08 02:17:31;;;;;;;15.53;12.20;;;;;;;-0.44;100.00;95805.22;5095311;28;20440;-72
2023/01/08 02:20:10;;;;;;;12.33;11.13;;;;;;;-0.46;100.00;95793.56;5096623;28;20524;-71
2023/01/08 02:22:53;;;;;;;12.37;11.07;;;;;;;-0.40;100.00;95801.06;5068795;28;20532;-72
2023/01/08 02:25:53;;;;;;;11.83;10.60;;;;;;;-0.65;100.00;95762.28;5069211;28;20486;-72
2023/01/08 02:28:21;;;;;;;13.50;12.23;;;;;;;-0.39;100.00;95792.25;5073552;28;20460;-72
2023/01/08 02:30:48;;;;;;;12.47;11.27;;;;;;;-0.56;100.00;95762.47;5084225;28;20436;-72
2023/01/08 02:33:15;;;;;;;18.80;12.30;;;;;;;-0.34;100.00;95781.03;5072730;28;20541;-72
2023/01/08 02:35:53;;;;;;;14.07;10.93;;;;;;;-0.38;100.00;95780.81;5075641;28;20450;-72
2023/01/08 02:38:21;;;;;;;13.17;10.80;;;;;;;-0.54;100.00;95757.78;5073842;28;20527;-72
2023/01/08 02:41:08;;;;;;;12.87;11.13;;;;;;;-0.63;100.00;95739.44;5072560;28;20552;-72
2023/01/08 02:43:41;;;;;;;14.30;12.60;;;;;;;-0.36;100.00;95767.56;5059971;28;20412;-72
2023/01/08 02:46:13;;;;;;;15.73;13.67;;;;;;;-0.41;100.00;95778.72;5073727;28;20451;-72
2023/01/08 02:48:55;;;;;;;13.20;11.90;;;;;;;-0.39;100.00;95768.88;5055921;28;20439;-72
2023/01/08 02:51:34;;;;;;;14.27;11.33;;;;;;;-0.65;100.00;95739.69;5055727;28;20489;-72
2023/01/08 02:54:08;;;;;;;13.30;11.90;;;;;;;-0.76;100.00;95734.84;5073398;28;20472;-72
2023/01/08 02:56:40;;;;;;;16.67;11.73;;;;;;;-0.54;100.00;95768.94;5072285;28;20531;-72
2023/01/08 02:59:09;;;;;;;15.00;13.37;;;;;;;-0.57;100.00;95760.91;5072293;28;20486;-72
2023/01/08 03:01:37;;;;;;;18.13;13.53;;;;;;;-0.49;100.00;95750.75;5072248;28;20467;-72
2023/01/08 03:04:18;;;;;;;17.87;13.63;;;;;;;-0.49;100.00;95760.38;5055587;28;20438;-72
2023/01/08 03:06:45;;;;;;;18.67;14.60;;;;;;;-0.45;100.00;95759.53;5072105;28;20423;-72
2023/01/08 03:09:13;;;;;;;24.00;14.37;;;;;;;-0.43;100.00;95747.06;5072114;28;20432;-72
2023/01/08 03:11:48;;;;;;;19.10;14.73;;;;;;;-0.27;100.00;95762.53;5073230;28;20431;-72
2023/01/08 03:14:21;;;;;;;18.40;14.10;;;;;;;-0.26;100.00;95767.50;5071914;28;20851;-72
2023/01/08 03:16:52;;;;;;;17.67;15.27;;;;;;;-0.42;100.00;95758.22;5073236;28;20420;-72
2023/01/08 03:19:40;;;;;;;17.83;14.07;;;;;;;-0.41;100.00;95757.19;5071873;28;20944;-72
2023/01/08 03:22:12;;;;;;;19.07;12.67;;;;;;;-0.43;100.00;95754.09;5071642;28;20948;-72
2023/01/08 03:24:41;;;;;;;16.40;14.13;;;;;;;-0.42;100.00;95760.81;5071950;28;20541;-72
2023/01/08 03:27:15;;;;;;;20.23;16.73;;;;;;;-0.46;100.00;95763.19;5071834;28;20440;-72
2023/01/08 03:29:43;;;;;;;23.93;17.20;;;;;;;-0.37;100.00;95755.63;5071486;28;20852;-72
2023/01/08 03:32:14;;;;;;;29.37;18.60;;;;;;;-0.51;100.00;95739.09;5071340;28;20432;-72
2023/01/08 03:34:43;;;;;;;47.87;17.30;;;;;;;-0.52;100.00;95738.31;5057700;28;20486;-72
2023/01/08 03:37:13;;;;;;;35.33;18.53;;;;;;;-0.68;100.00;95721.28;5071333;28;20527;-71
2023/01/08 03:39:54;;;;;;;56.20;18.43;;;;;;;-0.88;100.00;95690.28;5070650;28;20451;-72
2023/01/08 03:42:22;;;;;;;55.97;19.17;;;;;;;-0.70;100.00;95742.31;5071467;28;20433;-72
2023/01/08 03:44:48;;;;;;;40.30;16.97;;;;;;;-0.90;100.00;95703.50;5039001;28;21258;-72
2023/01/08 03:47:15;;;;;;;43.40;18.40;;;;;;;-0.80;100.00;95695.69;5062486;28;20498;-71
2023/01/08 03:49:44;;;;;;;43.20;17.90;;;;;;;-0.64;100.00;95717.88;5072790;28;20493;-72
2023/01/08 03:52:21;;;;;;;36.73;17.53;;;;;;;-0.52;100.00;95734.94;5070953;28;20426;-72
2023/01/08 03:54:47;;;;;;;28.17;15.60;;;;;;;-0.70;100.00;95718.19;5071155;28;20863;-71
2023/01/08 03:57:14;;;;;;;35.63;13.87;;;;;;;-0.71;100.00;95732.97;5072329;28;20909;-71
2023/01/08 03:59:41;;;;;;;30.93;14.37;;;;;;;-0.61;100.00;95740.69;5072243;28;20777;-72
2023/01/08 04:02:07;;;;;;;38.10;16.03;;;;;;;-0.48;100.00;95744.50;5070904;28;20520;-71
2023/01/08 04:04:34;;;;;;;35.43;14.67;;;;;;;-0.60;100.00;95731.88;5070667;28;20483;-71
2023/01/08 04:07:01;;;;;;;36.43;14.90;;;;;;;-0.75;100.00;95713.81;5070958;28;21001;-71
2023/01/08 04:09:28;;;;;;;44.57;17.67;;;;;;;-0.74;100.00;95712.75;5072024;28;20519;-71
2023/01/08 04:11:54;;;;;;;26.30;14.00;;;;;;;-0.70;100.00;95713.75;5072061;28;20524;-71
2023/01/08 04:14:21;;;;;;;56.33;18.30;;;;;;;-0.82;100.00;95692.56;5057151;28;20473;-71
2023/01/08 04:16:48;;;;;;;31.23;14.67;;;;;;;-0.65;100.00;95711.16;5071889;28;20475;-71
2023/01/08 04:19:14;;;;;;;24.70;14.97;;;;;;;-0.82;100.00;95658.03;5057285;28;20432;-72
2023/01/08 04:21:41;;;;;;;26.00;13.67;;;;;;;-0.64;100.00;95678.97;5070553;28;20439;-71
2023/01/08 04:24:08;;;;;;;32.80;14.77;;;;;;;-0.60;100.00;95687.75;5071769;28;20412;-72
2023/01/08 04:26:35;;;;;;;41.53;15.50;;;;;;;-0.67;100.00;95687.28;5069965;28;20425;-71
2023/01/08 04:29:03;;;;;;;41.50;14.90;;;;;;;-0.60;100.00;95681.78;5074552;28;20486;-71
2023/01/08 04:31:30;;;;;;;34.80;16.60;;;;;;;-0.79;100.00;95640.16;5076769;28;20828;-71
2023/01/08 04:33:57;;;;;;;30.27;15.10;;;;;;;-0.53;100.00;95666.69;5053659;28;20456;-71
2023/01/08 04:36:23;;;;;;;49.07;14.30;;;;;;;-0.48;100.00;95677.00;5073041;28;20475;-71
2023/01/08 04:38:50;;;;;;;33.47;15.47;;;;;;;-0.60;100.00;95659.19;5070118;28;20441;-71
2023/01/08 04:41:17;;;;;;;32.73;14.57;;;;;;;-0.68;100.00;95636.41;5070175;28;20434;-71
2023/01/08 04:43:44;;;;;;;22.90;14.07;;;;;;;-0.55;100.00;95663.56;5071446;28;20428;-72
2023/01/08 04:46:10;;;;;;;27.53;13.67;;;;;;;-0.79;100.00;95621.22;5069934;28;20981;-72
2023/01/08 04:48:37;;;;;;;26.90;15.00;;;;;;;-0.51;100.00;95646.41;5069958;28;20467;-72
2023/01/08 04:51:04;;;;;;;53.00;17.20;;;;;;;-0.50;100.00;95642.00;5044212;28;20520;-72
2023/01/08 04:53:35;;;;;;;49.90;18.20;;;;;;;-0.58;100.00;95647.75;5053393;28;20559;-72
2023/01/08 04:56:06;;;;;;;42.57;16.20;;;;;;;-0.54;100.00;95640.97;5071110;28;20436;-71
2023/01/08 04:58:34;;;;;;;30.13;15.07;;;;;;;-0.76;100.00;95603.25;5070045;28;20447;-72
2023/01/08 05:01:08;;;;;;;25.50;14.87;;;;;;;-0.52;100.00;95628.53;5069684;28;20424;-71
2023/01/08 05:03:35;;;;;;;56.17;16.30;;;;;;;-0.49;100.00;95612.38;5069825;28;20427;-71
2023/01/08 05:06:02;;;;;;;69.33;19.97;;;;;;;-0.24;100.00;95645.16;5069451;28;20460;-72
2023/01/08 05:08:28;;;;;;;67.40;20.93;;;;;;;-0.38;100.00;95629.44;5053012;28;20519;-72
2023/01/08 05:10:58;;;;;;;99.57;19.13;;;;;;;-0.22;100.00;95656.03;5069505;28;20448;-71
2023/01/08 05:13:24;;;;;;;61.67;16.23;;;;;;;-0.32;100.00;95646.50;5069401;28;20502;-71
2023/01/08 05:15:51;;;;;;;91.77;20.80;;;;;;;-0.59;100.00;95621.03;5069410;28;20450;-71
2023/01/08 05:18:18;;;;;;;54.83;17.30;;;;;;;-0.39;100.00;95638.28;5069417;28;20555;-72
2023/01/08 05:20:45;;;;;;;86.80;21.20;;;;;;;-0.40;100.00;95640.09;5069717;28;20531;-72
2023/01/08 05:23:11;;;;;;;99.20;21.57;;;;;;;-0.58;100.00;95601.03;5069504;28;20441;-71
2023/01/08 05:25:38;;;;;;;73.83;21.63;;;;;;;-0.57;100.00;95598.16;5055875;28;20456;-71
2023/01/08 05:28:04;;;;;;;93.03;20.37;;;;;;;-0.51;100.00;95607.47;5052676;28;20840;-71
2023/01/08 05:30:31;;;;;;;79.27;18.83;;;;;;;-0.48;100.00;95616.53;5069364;28;20450;-71
2023/01/08 05:32:58;;;;;;;72.47;19.07;;;;;;;-0.31;100.00;95625.44;5070536;28;20491;-72
2023/01/08 05:35:24;;;;;;;117.80;23.60;;;;;;;-0.25;100.00;95625.44;5055408;28;20488;-71
2023/01/08 05:37:51;;;;;;;110.73;21.40;;;;;;;-0.58;100.00;95598.44;5069217;28;20526;-71
2023/01/08 05:40:17;;;;;;;47.50;18.20;;;;;;;-0.50;100.00;95608.25;5069191;28;20970;-71
2023/01/08 05:42:44;;;;;;;49.77;18.07;;;;;;;-0.56;100.00;95604.91;5070484;28;20464;-72
2023/01/08 05:45:11;;;;;;;45.13;16.90;;;;;;;-0.48;100.00;95608.75;5069145;28;20570;-72
2023/01/08 05:47:37;;;;;;;47.17;18.40;;;;;;;-0.61;100.00;95594.56;5069386;28;20464;-72
2023/01/08 05:50:04;;;;;;;35.33;16.20;;;;;;;-0.31;100.00;95619.47;5070470;28;20430;-72
2023/01/08 05:52:31;;;;;;;58.53;18.20;;;;;;;-0.60;100.00;95586.50;5070425;28;20466;-72
2023/01/08 05:54:59;;;;;;;29.77;15.90;;;;;;;-0.34;100.00;95614.84;5052332;28;20504;-72
2023/01/08 05:57:25;;;;;;;51.13;17.50;;;;;;;-0.41;100.00;95601.41;5068942;28;20432;-72
2023/01/08 05:59:52;;;;;;;71.97;20.13;;;;;;;-0.36;100.00;95629.94;5068922;28;20814;-72
2023/01/08 06:02:21;;;;;;;28.97;15.90;;;;;;;-0.46;100.00;95598.84;5069481;28;20444;-72
2023/01/08 06:04:48;;;;;;;30.17;17.40;;;;;;;-0.54;100.00;95594.25;5056463;28;20827;-72
2023/01/08 06:07:15;;;;;;;43.00;16.10;;;;;;;-0.55;100.00;95584.91;5056673;28;20429;-72
2023/01/08 06:09:41;;;;;;;36.63;16.90;;;;;;;-0.50;100.00;95595.28;5072951;28;20523;-72
2023/01/08 06:12:08;;;;;;;57.47;18.90;;;;;;;-0.40;100.00;95611.53;5072798;28;20432;-72
2023/01/08 06:14:35;;;;;;;58.13;19.53;;;;;;;-0.32;100.00;95607.56;5056188;28;20472;-72
2023/01/08 06:17:01;;;;;;;62.50;20.60;;;;;;;-0.51;100.00;95604.88;5074131;28;20445;-72
2023/01/08 06:19:28;;;;;;;41.40;17.27;;;;;;;-0.53;100.00;95582.84;5074357;28;20463;-72
2023/01/08 06:21:55;;;;;;;61.43;20.03;;;;;;;-0.66;100.00;95561.66;5072707;28;20452;-72
2023/01/08 06:24:22;;;;;;;36.83;17.77;;;;;;;-0.23;100.00;95618.91;5072800;28;20452;-72
2023/01/08 06:26:49;;;;;;;27.40;17.33;;;;;;;-0.43;100.00;95580.91;5056099;28;20551;-72
2023/01/08 06:29:15;;;;;;;27.63;16.13;;;;;;;-0.23;100.00;95610.34;5082563;28;20427;-72
2023/01/08 06:31:42;;;;;;;26.40;17.43;;;;;;;-0.43;100.00;95595.72;5076072;28;20428;-72
2023/01/08 06:34:10;;;;;;;52.07;19.00;;;;;;;-0.37;100.00;95602.41;5072676;28;20501;-72
2023/01/08 06:36:37;;;;;;;28.23;17.00;;;;;;;-0.19;100.00;95629.50;5077047;28;20477;-72
2023/01/08 06:39:07;;;;;;;54.27;18.00;;;;;;;-0.64;100.00;95574.38;5072448;28;20440;-72
2023/01/08 06:41:34;;;;;;;35.80;17.50;;;;;;;-0.44;100.00;95601.94;5073716;28;21048;-72
2023/01/08 06:44:00;;;;;;;35.03;17.80;;;;;;;-0.38;100.00;95609.44;5073808;28;20876;-72
2023/01/08 06:46:27;;;;;;;36.57;20.50;;;;;;;-0.48;100.00;95612.13;5072352;28;20463;-72
2023/01/08 06:48:53;;;;;;;30.07;19.90;;;;;;;-0.71;100.00;95574.66;5072767;28;21122;-72
2023/01/08 06:51:20;;;;;;;46.73;20.87;;;;;;;-0.64;100.00;95574.38;5072529;28;20860;-72
2023/01/08 06:53:47;;;;;;;36.37;20.00;;;;;;;-0.54;100.00;95586.47;5073534;28;21074;-72
2023/01/08 06:56:14;;;;;;;37.23;18.70;;;;;;;-0.53;100.00;95583.63;5060194;28;20460;-72
2023/01/08 06:58:41;;;;;;;42.53;17.10;;;;;;;-0.53;100.00;95565.44;5055516;28;20444;-72
2023/01/08 07:01:12;;;;;;;22.73;16.30;;;;;;;-0.36;100.00;95588.38;5072094;28;20439;-72
2023/01/08 07:03:39;;;;;;;33.00;17.40;;;;;;;-0.29;100.00;95599.22;5072102;28;20475;-72
2023/01/08 07:06:06;;;;;;;23.67;17.07;;;;;;;-0.47;100.00;95560.97;5073406;28;20483;-72
2023/01/08 07:08:33;;;;;;;37.07;16.50;;;;;;;-0.37;100.00;95577.22;5072025;28;20472;-72
2023/01/08 07:11:03;;;;;;;27.50;16.47;;;;;;;-0.15;100.00;95597.50;5072117;28;20444;-72
2023/01/08 07:13:30;;;;;;;45.03;19.20;;;;;;;-0.11;100.00;95595.16;5054464;28;20606;-72
2023/01/08 07:15:56;;;;;;;34.80;17.43;;;;;;;-0.66;100.00;95511.59;5071359;28;20452;-72
2023/01/08 07:18:23;;;;;;;43.97;17.87;;;;;;;-0.33;100.00;95549.66;5071889;28;20913;-72
2023/01/08 07:20:50;;;;;;;34.50;17.60;;;;;;;-0.14;100.00;95586.06;5071949;28;20861;-72
2023/01/08 07:23:17;;;;;;;28.43;17.17;;;;;;;-0.12;100.00;95580.63;5071581;28;20428;-72
2023/01/08 07:25:43;;;;;;;28.50;15.13;;;;;;;-0.25;100.00;95558.66;5046641;28;20492;-72
2023/01/08 07:28:11;;;;;;;30.63;15.90;;;;;;;0.02;100.00;95588.53;5050943;28;20430;-72
2023/01/08 07:30:38;;;;;;;30.00;16.37;;;;;;;-0.15;100.00;95558.53;5083788;28;20478;-72
2023/01/08 07:33:04;;;;;;;20.20;14.57;;;;;;;-0.07;100.00;95568.34;5071390;28;20527;-72
2023/01/08 07:35:31;;;;;;;20.03;15.63;;;;;;;0.06;100.00;95573.91;5057633;28;20543;-72
2023/01/08 07:37:58;;;;;;;20.23;17.43;;;;;;;0.20;100.00;95593.75;5072696;28;20424;-72
2023/01/08 07:40:24;;;;;;;31.77;20.93;;;;;;;-0.12;100.00;95559.84;5072674;28;20798;-72
2023/01/08 07:43:02;;;;;;;31.63;21.70;;;;;;;0.11;100.00;95587.63;5071353;28;20459;-72
2023/01/08 07:45:30;;;;;;;29.97;21.97;;;;;;;-0.14;100.00;95546.31;5054583;28;20510;-72
2023/01/08 07:47:58;;;;;;;32.87;19.13;;;;;;;0.05;100.00;95572.38;5072599;28;20428;-72
2023/01/08 07:50:25;;;;;;;25.23;18.40;;;;;;;0.19;100.00;95587.00;5071425;28;20524;-72
2023/01/08 07:52:52;;;;;;;28.23;19.10;;;;;;;0.06;100.00;95551.31;5051858;28;20451;-72
2023/01/08 07:55:18;;;;;;;25.80;17.97;;;;;;;0.24;100.00;95591.38;5055003;28;21071;-72
2023/01/08 07:57:45;;;;;;;23.57;18.93;;;;;;;0.17;100.00;95589.13;5072119;28;20479;-72
2023/01/08 08:00:13;;;;;;;28.10;20.27;;;;;;;0.14;100.00;95576.69;5071784;28;20962;-72
2023/01/08 08:02:40;;;;;;;25.80;20.67;;;;;;;0.19;100.00;95592.22;5087843;28;20436;-73
2023/01/08 08:05:07;;;;;;;24.27;19.87;;;;;;;0.17;100.00;95568.31;5079805;28;20459;-72
2023/01/08 08:07:34;;;;;;;26.37;21.03;;;;;;;0.13;100.00;95559.53;5096062;28;20424;-72
2023/01/08 08:10:03;;;;;;;28.40;20.97;;;;;;;0.27;100.00;95572.63;5083701;28;20455;-72
2023/01/08 08:12:29;;;;;;;29.63;20.47;;;;;;;0.16;100.00;95540.78;5071114;28;20439;-72
2023/01/08 08:14:56;;;;;;;25.33;19.40;;;;;;;0.36;100.00;95537.16;5070797;28;20479;-72
2023/01/08 08:17:23;;;;;;;28.07;20.87;;;;;;;0.37;100.00;95527.53;5054515;28;20464;-72
2023/01/08 08:19:49;;;;;;;32.30;22.70;;;;;;;0.61;100.00;95563.88;5070893;28;20428;-72
2023/01/08 08:22:16;;;;;;;30.43;21.47;;;;;;;0.57;100.00;95550.66;5070458;28;20451;-72
2023/01/08 08:24:43;;;;;;;28.23;21.30;;;;;;;0.71;100.00;95553.31;5071866;28;20810;-72
2023/01/08 08:27:09;;;;;;;23.70;18.53;;;;;;;0.57;100.00;95527.25;5070179;28;20440;-72
2023/01/08 08:29:36;;;;;;;29.53;18.90;;;;;;;0.77;100.00;95557.38;5083484;28;20790;-72
2023/01/08 08:32:03;;;;;;;24.20;18.37;;;;;;;0.66;100.00;95522.16;5051289;28;20441;-72
2023/01/08 08:34:29;;;;;;;30.70;21.03;;;;;;;0.95;100.00;95561.81;5064908;28;20479;-72
2023/01/08 08:36:56;;;;;;;28.90;19.77;;;;;;;0.84;100.00;95545.56;5066281;28;20524;-72
2023/01/08 08:39:22;;;;;;;25.77;21.10;;;;;;;0.91;100.00;95550.41;5064006;28;20494;-72
2023/01/08 08:41:49;;;;;;;32.67;20.23;;;;;;;1.02;100.00;95564.03;5064075;28;20468;-72
2023/01/08 08:44:16;;;;;;;28.37;20.00;;;;;;;0.80;100.00;95521.19;5063833;28;20563;-72
2023/01/08 08:46:42;;;;;;;26.90;18.47;;;;;;;1.14;100.00;95580.00;5071978;28;20442;-72
2023/01/08 08:49:09;;;;;;;27.93;20.10;;;;;;;1.22;100.00;95586.41;5057181;28;20437;-72
2023/01/08 08:51:36;;;;;;;26.60;19.30;;;;;;;1.35;100.00;95577.84;5057139;28;20432;-72
2023/01/08 08:54:02;;;;;;;27.97;19.27;;;;;;;1.38;100.00;95608.53;5070449;28;20464;-72
2023/01/08 08:56:29;;;;;;;25.80;18.40;;;;;;;1.42;100.00;95601.69;5063668;28;20431;-72
2023/01/08 08:58:57;;;;;;;26.87;19.70;;;;;;;1.37;100.00;95594.72;5064215;28;20425;-73
2023/01/08 09:01:24;;;;;;;28.77;21.43;;;;;;;1.33;100.00;95591.13;5070421;28;20921;-73
2023/01/08 09:03:50;;;;;;;27.17;19.83;;;;;;;1.28;100.00;95582.63;5070379;28;21004;-73
2023/01/08 09:06:17;;;;;;;30.00;20.77;;;;;;;1.19;100.00;95564.28;5070185;28;20967;-72
2023/01/08 09:08:44;;;;;;;24.03;18.93;;;;;;;1.39;100.00;95589.25;5070317;28;20987;-73
2023/01/08 09:11:10;;;;;;;29.10;19.77;;;;;;;1.16;100.00;95560.44;5071584;28;20437;-72
2023/01/08 09:13:39;;;;;;;25.47;19.13;;;;;;;1.22;100.00;95565.56;5070054;28;20432;-73
2023/01/08 09:16:06;;;;;;;24.37;18.37;;;;;;;1.43;100.00;95592.81;5071464;28;20502;-73
2023/01/08 09:18:33;;;;;;;29.40;22.20;;;;;;;1.30;100.00;95570.88;5070010;28;20428;-73
2023/01/08 09:21:04;;;;;;;27.20;20.63;;;;;;;1.46;100.00;95589.63;5071455;28;20527;-72
2023/01/08 09:23:31;;;;;;;30.93;21.73;;;;;;;1.48;100.00;95577.88;5056463;28;20451;-72
2023/01/08 09:26:02;;;;;;;31.90;23.20;;;;;;;1.47;100.00;95578.94;5070180;28;20451;-72
2023/01/08 09:28:29;;;;;;;28.67;21.90;;;;;;;1.60;100.00;95602.69;5048254;28;20485;-73
2023/01/08 09:31:00;;;;;;;30.17;21.03;;;;;;;1.60;100.00;95587.81;5079664;28;20957;-73
2023/01/08 09:33:28;;;;;;;28.10;21.00;;;;;;;1.46;100.00;95561.75;5069643;28;20429;-72
2023/01/08 09:35:54;;;;;;;25.67;19.60;;;;;;;1.64;100.00;95575.78;5078835;28;20801;-72
2023/01/08 09:38:21;;;;;;;27.87;19.93;;;;;;;1.76;100.00;95581.31;5070796;28;20435;-73
2023/01/08 09:40:55;;;;;;;27.10;19.90;;;;;;;1.58;100.00;95550.88;5053003;28;20941;-72
2023/01/08 09:43:25;;;;;;;24.13;18.90;;;;;;;2.00;100.00;95595.97;5053071;28;20437;-73
2023/01/08 09:45:56;;;;;;;24.00;18.43;;;;;;;1.91;100.00;95582.09;5069674;28;20451;-73
2023/01/08 09:48:27;;;;;;;29.60;20.83;;;;;;;1.87;100.00;95573.28;5056704;28;20535;-73
2023/01/08 09:50:55;;;;;;;28.37;20.17;;;;;;;2.15;100.00;95616.56;5069866;28;20511;-73
2023/01/08 09:53:22;;;;;;;27.13;23.23;;;;;;;1.93;100.00;95585.16;5069432;28;20436;-73
2023/01/08 09:56:00;;;;;;;27.87;22.30;;;;;;;1.81;100.00;95577.06;5069879;28;20502;-73
2023/01/08 09:58:41;;;;;;;30.43;22.57;;;;;;;1.86;100.00;95572.50;5069902;28;20462;-73
2023/01/08 10:01:12;;;;;;;29.53;22.10;;;;;;;1.96;100.00;95585.38;5072547;28;20536;-73
2023/01/08 10:03:43;;;;;;;21.17;16.87;;;;;;;2.06;100.00;95582.56;5070485;28;20950;-73
2023/01/08 10:06:12;;;;;;;21.40;17.77;;;;;;;2.17;100.00;95579.78;5057356;28;20513;-73
2023/01/08 10:08:39;;;;;;;27.83;18.87;;;;;;;2.05;100.00;95548.97;5062157;28;20797;-72
2023/01/08 10:11:07;;;;;;;23.13;16.63;;;;;;;2.28;100.00;95560.25;5069379;28;20933;-72
2023/01/08 10:13:38;;;;;;;22.40;15.27;;;;;;;2.32;100.00;95562.00;5069067;28;20804;-73
2023/01/08 10:16:07;;;;;;;19.27;15.87;;;;;;;2.50;100.00;95567.34;5068969;28;20829;-72
2023/01/08 10:18:34;;;;;;;19.83;17.70;;;;;;;2.61;100.00;95573.91;5069292;28;20950;-73
2023/01/08 10:21:00;;;;;;;20.03;16.10;;;;;;;2.57;100.00;95547.66;5069316;28;20442;-73
2023/01/08 10:23:27;;;;;;;18.80;15.00;;;;;;;2.74;100.00;95557.44;5070432;28;20482;-72
2023/01/08 10:25:57;;;;;;;17.40;15.50;;;;;;;2.72;100.00;95545.78;5069108;28;20571;-72
2023/01/08 10:28:29;;;;;;;20.87;16.20;;;;;;;2.71;100.00;95524.13;5070369;28;20515;-72
2023/01/08 10:31:04;;;;;;;18.23;14.07;;;;;;;2.88;100.00;95560.78;5069278;28;20452;-72
2023/01/08 10:33:41;;;;;;;16.83;15.10;;;;;;;2.86;100.00;95542.03;5055656;28;20439;-72
2023/01/08 10:36:10;;;;;;;18.83;14.67;;;;;;;2.99;100.00;95553.50;5070358;28;20467;-72
2023/01/08 10:38:53;;;;;;;18.53;14.03;;;;;;;2.85;100.00;95544.94;5039950;28;20436;-72
2023/01/08 10:41:20;;;;;;;15.60;11.80;;;;;;;2.75;100.00;95527.69;5069131;28;20435;-72
2023/01/08 10:43:56;;;;;;;14.40;12.90;;;;;;;3.06;100.00;95555.69;5069039;28;20420;-72
2023/01/08 10:46:29;;;;;;;18.77;14.30;;;;;;;2.96;100.00;95536.59;5069148;28;20534;-72
2023/01/08 10:48:59;;;;;;;16.03;13.87;;;;;;;2.89;100.00;95532.84;5072159;28;20782;-72
2023/01/08 10:51:29;;;;;;;14.47;12.30;;;;;;;3.13;100.00;95551.59;5073028;28;20427;-72
2023/01/08 10:54:25;;;;;;;22.23;15.37;;;;;;;3.31;100.00;95557.69;5072625;28;20440;-72
2023/01/08 10:56:51;;;;;;;17.47;13.50;;;;;;;3.32;100.00;95546.16;5072968;28;20542;-72
2023/01/08 10:59:19;;;;;;;16.53;13.27;;;;;;;3.35;100.00;95539.59;5056262;28;20444;-72
2023/01/08 11:01:47;;;;;;;17.60;13.40;;;;;;;3.31;100.00;95528.97;5072842;28;20849;-71
2023/01/08 11:04:35;;;;;;;13.33;11.90;;;;;;;3.42;100.00;95513.81;5072837;28;20972;-71
2023/01/08 11:07:06;;;;;;;16.03;12.70;;;;;;;3.52;100.00;95534.47;5072885;28;20527;-71
2023/01/08 11:09:39;;;;;;;14.67;12.87;;;;;;;3.29;100.00;95525.88;5059840;28;20462;-71
2023/01/08 11:12:39;;;;;;;13.33;11.93;;;;;;;3.38;100.00;95526.72;5072770;28;20476;-71
2023/01/08 11:15:27;;;;;;;16.57;13.70;;;;;;;3.30;100.00;95516.97;5015544;28;20476;-71
2023/01/08 11:17:53;;;;;;;16.30;12.70;;;;;;;3.18;100.00;95480.19;5074228;28;20409;-71
2023/01/08 11:20:27;;;;;;;13.53;12.13;;;;;;;3.34;100.00;95504.06;5073767;28;20791;-71